sensor_id;sensor_type;location;lat;lon;timestamp;P1;durP1;ratioP1;P2;durP2;ratioP2
45420;SDS011;55462;47.042;8.292;2024-03-02T00:00:41;6.60;;;6.10;;
45420;SDS011;55462;47.042;8.292;2024-03-02T00:03:06;5.55;;;5.15;;
45420;SDS011;55462;47.042;8.292;2024-03-02T00:05:32;4.65;;;4.28;;
45420;SDS011;55462;47.042;8.292;2024-03-02T00:07:57;4.57;;;4.25;;
45420;SDS011;55462;47.042;8.292;2024-03-02T00:10:27;5.63;;;3.95;;
45420;SDS011;55462;47.042;8.292;2024-03-02T00:12:56;4.15;;;3.85;;
45420;SDS011;55462;47.042;8.292;2024-03-02T00:18:10;6.03;;;5.13;;
45420;SDS011;55462;47.042;8.292;2024-03-02T00:20:36;6.53;;;4.93;;
45420;SDS011;55462;47.042;8.292;2024-03-02T00:23:05;5.43;;;4.93;;
45420;SDS011;55462;47.042;8.292;2024-03-02T00:25:38;5.88;;;5.38;;
45420;SDS011;55462;47.042;8.292;2024-03-02T00:28:17;5.03;;;4.53;;
45420;SDS011;55462;47.042;8.292;2024-03-02T00:33:23;4.88;;;4.53;;
45420;SDS011;55462;47.042;8.292;2024-03-02T00:35:55;5.28;;;4.88;;
45420;SDS011;55462;47.042;8.292;2024-03-02T00:38:21;4.70;;;4.35;;
45420;SDS011;55462;47.042;8.292;2024-03-02T00:40:47;4.85;;;4.15;;
45420;SDS011;55462;47.042;8.292;2024-03-02T00:43:25;4.18;;;3.60;;
45420;SDS011;55462;47.042;8.292;2024-03-02T00:45:52;3.92;;;3.63;;
45420;SDS011;55462;47.042;8.292;2024-03-02T00:48:18;3.33;;;2.92;;
45420;SDS011;55462;47.042;8.292;2024-03-02T00:50:43;2.13;;;2.03;;
45420;SDS011;55462;47.042;8.292;2024-03-02T00:53:12;2.28;;;2.17;;
45420;SDS011;55462;47.042;8.292;2024-03-02T00:55:37;1.73;;;1.70;;
45420;SDS011;55462;47.042;8.292;2024-03-02T00:58:03;2.72;;;2.53;;
45420;SDS011;55462;47.042;8.292;2024-03-02T01:00:28;3.08;;;2.88;;
45420;SDS011;55462;47.042;8.292;2024-03-02T01:02:53;3.60;;;3.30;;
45420;SDS011;55462;47.042;8.292;2024-03-02T01:05:19;4.07;;;3.67;;
45420;SDS011;55462;47.042;8.292;2024-03-02T01:07:45;4.20;;;3.90;;
45420;SDS011;55462;47.042;8.292;2024-03-02T01:10:10;3.92;;;3.63;;
45420;SDS011;55462;47.042;8.292;2024-03-02T01:12:36;3.60;;;3.30;;
45420;SDS011;55462;47.042;8.292;2024-03-02T01:15:01;3.70;;;3.50;;
45420;SDS011;55462;47.042;8.292;2024-03-02T01:17:29;4.05;;;3.75;;
45420;SDS011;55462;47.042;8.292;2024-03-02T01:19:54;3.95;;;3.65;;
45420;SDS011;55462;47.042;8.292;2024-03-02T01:22:19;3.72;;;3.42;;
45420;SDS011;55462;47.042;8.292;2024-03-02T01:24:50;4.07;;;3.60;;
45420;SDS011;55462;47.042;8.292;2024-03-02T01:27:15;3.67;;;3.47;;
45420;SDS011;55462;47.042;8.292;2024-03-02T01:29:40;4.70;;;3.60;;
45420;SDS011;55462;47.042;8.292;2024-03-02T01:32:06;3.38;;;3.17;;
45420;SDS011;55462;47.042;8.292;2024-03-02T01:34:31;3.20;;;2.90;;
45420;SDS011;55462;47.042;8.292;2024-03-02T01:36:56;2.60;;;2.42;;
45420;SDS011;55462;47.042;8.292;2024-03-02T01:39:22;3.13;;;2.92;;
45420;SDS011;55462;47.042;8.292;2024-03-02T01:41:47;3.35;;;3.15;;
45420;SDS011;55462;47.042;8.292;2024-03-02T01:44:12;4.22;;;3.92;;
45420;SDS011;55462;47.042;8.292;2024-03-02T01:46:37;4.78;;;4.47;;
45420;SDS011;55462;47.042;8.292;2024-03-02T01:49:03;5.07;;;4.43;;
45420;SDS011;55462;47.042;8.292;2024-03-02T01:51:29;4.38;;;4.07;;
45420;SDS011;55462;47.042;8.292;2024-03-02T01:53:54;5.20;;;4.80;;
45420;SDS011;55462;47.042;8.292;2024-03-02T01:56:20;5.88;;;5.10;;
45420;SDS011;55462;47.042;8.292;2024-03-02T01:58:45;4.82;;;4.43;;
45420;SDS011;55462;47.042;8.292;2024-03-02T02:01:10;5.53;;;5.13;;
45420;SDS011;55462;47.042;8.292;2024-03-02T02:03:36;5.90;;;4.97;;
45420;SDS011;55462;47.042;8.292;2024-03-02T02:06:02;6.10;;;5.60;;
45420;SDS011;55462;47.042;8.292;2024-03-02T02:08:27;4.78;;;4.47;;
45420;SDS011;55462;47.042;8.292;2024-03-02T02:10:52;5.15;;;4.75;;
45420;SDS011;55462;47.042;8.292;2024-03-02T02:13:18;5.60;;;5.03;;
45420;SDS011;55462;47.042;8.292;2024-03-02T02:15:43;5.18;;;4.68;;
45420;SDS011;55462;47.042;8.292;2024-03-02T02:18:08;4.43;;;4.03;;
45420;SDS011;55462;47.042;8.292;2024-03-02T02:20:34;4.45;;;4.15;;
45420;SDS011;55462;47.042;8.292;2024-03-02T02:23:00;4.43;;;4.13;;
45420;SDS011;55462;47.042;8.292;2024-03-02T02:25:26;5.60;;;4.28;;
45420;SDS011;55462;47.042;8.292;2024-03-02T02:27:52;4.20;;;3.90;;
45420;SDS011;55462;47.042;8.292;2024-03-02T02:30:25;3.88;;;3.60;;
45420;SDS011;55462;47.042;8.292;2024-03-02T02:32:54;4.22;;;3.92;;
45420;SDS011;55462;47.042;8.292;2024-03-02T02:35:19;4.70;;;4.30;;
45420;SDS011;55462;47.042;8.292;2024-03-02T02:37:45;4.35;;;4.05;;
45420;SDS011;55462;47.042;8.292;2024-03-02T02:40:11;4.65;;;4.25;;
45420;SDS011;55462;47.042;8.292;2024-03-02T02:42:37;6.88;;;4.18;;
45420;SDS011;55462;47.042;8.292;2024-03-02T02:45:03;4.65;;;4.25;;
45420;SDS011;55462;47.042;8.292;2024-03-02T02:47:29;6.68;;;5.05;;
45420;SDS011;55462;47.042;8.292;2024-03-02T02:49:55;4.85;;;4.45;;
45420;SDS011;55462;47.042;8.292;2024-03-02T02:52:20;4.93;;;4.53;;
45420;SDS011;55462;47.042;8.292;2024-03-02T02:54:46;5.70;;;4.53;;
45420;SDS011;55462;47.042;8.292;2024-03-02T02:57:11;6.03;;;4.35;;
45420;SDS011;55462;47.042;8.292;2024-03-02T02:59:37;4.38;;;4.07;;
45420;SDS011;55462;47.042;8.292;2024-03-02T03:02:02;5.00;;;4.60;;
45420;SDS011;55462;47.042;8.292;2024-03-02T03:04:27;6.07;;;5.57;;
45420;SDS011;55462;47.042;8.292;2024-03-02T03:06:52;5.97;;;5.45;;
45420;SDS011;55462;47.042;8.292;2024-03-02T03:09:18;6.82;;;6.22;;
45420;SDS011;55462;47.042;8.292;2024-03-02T03:11:43;7.82;;;5.65;;
45420;SDS011;55462;47.042;8.292;2024-03-02T03:14:09;5.80;;;5.30;;
45420;SDS011;55462;47.042;8.292;2024-03-02T03:16:34;5.30;;;4.90;;
45420;SDS011;55462;47.042;8.292;2024-03-02T03:18:59;5.90;;;5.40;;
45420;SDS011;55462;47.042;8.292;2024-03-02T03:21:25;5.15;;;4.75;;
45420;SDS011;55462;47.042;8.292;2024-03-02T03:23:50;6.20;;;5.70;;
45420;SDS011;55462;47.042;8.292;2024-03-02T03:26:15;5.80;;;5.30;;
45420;SDS011;55462;47.042;8.292;2024-03-02T03:28:41;4.60;;;4.30;;
45420;SDS011;55462;47.042;8.292;2024-03-02T03:31:06;4.28;;;3.88;;
45420;SDS011;55462;47.042;8.292;2024-03-02T03:33:32;3.83;;;3.53;;
45420;SDS011;55462;47.042;8.292;2024-03-02T03:35:57;3.80;;;3.50;;
45420;SDS011;55462;47.042;8.292;2024-03-02T03:38:22;3.10;;;2.90;;
45420;SDS011;55462;47.042;8.292;2024-03-02T03:40:47;2.88;;;2.70;;
45420;SDS011;55462;47.042;8.292;2024-03-02T03:43:13;2.10;;;2.00;;
45420;SDS011;55462;47.042;8.292;2024-03-02T03:45:38;2.00;;;1.90;;
45420;SDS011;55462;47.042;8.292;2024-03-02T03:48:04;2.83;;;2.00;;
45420;SDS011;55462;47.042;8.292;2024-03-02T03:50:29;2.20;;;2.10;;
45420;SDS011;55462;47.042;8.292;2024-03-02T03:52:54;2.95;;;2.60;;
45420;SDS011;55462;47.042;8.292;2024-03-02T03:55:20;2.85;;;2.65;;
45420;SDS011;55462;47.042;8.292;2024-03-02T03:57:45;3.70;;;2.88;;
45420;SDS011;55462;47.042;8.292;2024-03-02T04:00:10;4.05;;;3.75;;
45420;SDS011;55462;47.042;8.292;2024-03-02T04:02:37;5.60;;;3.50;;
45420;SDS011;55462;47.042;8.292;2024-03-02T04:05:02;3.10;;;2.90;;
45420;SDS011;55462;47.042;8.292;2024-03-02T04:07:30;3.78;;;3.47;;
45420;SDS011;55462;47.042;8.292;2024-03-02T04:09:55;4.13;;;3.83;;
45420;SDS011;55462;47.042;8.292;2024-03-02T04:12:20;2.88;;;2.67;;
45420;SDS011;55462;47.042;8.292;2024-03-02T04:14:46;3.22;;;2.97;;
45420;SDS011;55462;47.042;8.292;2024-03-02T04:17:11;4.82;;;2.90;;
45420;SDS011;55462;47.042;8.292;2024-03-02T04:19:36;2.97;;;2.78;;
45420;SDS011;55462;47.042;8.292;2024-03-02T04:22:02;3.47;;;3.17;;
45420;SDS011;55462;47.042;8.292;2024-03-02T04:24:28;4.10;;;3.20;;
45420;SDS011;55462;47.042;8.292;2024-03-02T04:26:53;3.00;;;2.80;;
45420;SDS011;55462;47.042;8.292;2024-03-02T04:29:18;2.80;;;2.60;;
45420;SDS011;55462;47.042;8.292;2024-03-02T04:31:43;3.60;;;3.30;;
45420;SDS011;55462;47.042;8.292;2024-03-02T04:34:09;3.33;;;3.13;;
45420;SDS011;55462;47.042;8.292;2024-03-02T04:36:34;3.20;;;3.00;;
45420;SDS011;55462;47.042;8.292;2024-03-02T04:38:59;3.67;;;3.33;;
45420;SDS011;55462;47.042;8.292;2024-03-02T04:41:25;3.57;;;2.80;;
45420;SDS011;55462;47.042;8.292;2024-03-02T04:43:50;2.22;;;2.13;;
45420;SDS011;55462;47.042;8.292;2024-03-02T04:46:15;1.60;;;1.58;;
45420;SDS011;55462;47.042;8.292;2024-03-02T04:48:41;1.60;;;1.60;;
45420;SDS011;55462;47.042;8.292;2024-03-02T04:51:06;1.60;;;1.50;;
45420;SDS011;55462;47.042;8.292;2024-03-02T04:53:32;2.00;;;1.80;;
45420;SDS011;55462;47.042;8.292;2024-03-02T04:55:57;1.87;;;1.77;;
45420;SDS011;55462;47.042;8.292;2024-03-02T04:58:41;2.93;;;2.73;;
45420;SDS011;55462;47.042;8.292;2024-03-02T05:01:06;2.72;;;2.53;;
45420;SDS011;55462;47.042;8.292;2024-03-02T05:03:31;3.28;;;2.20;;
45420;SDS011;55462;47.042;8.292;2024-03-02T05:05:59;2.55;;;2.35;;
45420;SDS011;55462;47.042;8.292;2024-03-02T05:08:25;2.60;;;2.40;;
45420;SDS011;55462;47.042;8.292;2024-03-02T05:10:50;2.10;;;2.00;;
45420;SDS011;55462;47.042;8.292;2024-03-02T05:13:15;2.25;;;2.03;;
45420;SDS011;55462;47.042;8.292;2024-03-02T05:15:42;3.03;;;2.83;;
45420;SDS011;55462;47.042;8.292;2024-03-02T05:18:08;2.90;;;2.70;;
45420;SDS011;55462;47.042;8.292;2024-03-02T05:20:33;3.30;;;2.50;;
45420;SDS011;55462;47.042;8.292;2024-03-02T05:22:59;3.65;;;2.70;;
45420;SDS011;55462;47.042;8.292;2024-03-02T05:25:24;2.10;;;2.00;;
45420;SDS011;55462;47.042;8.292;2024-03-02T05:27:49;2.25;;;2.15;;
45420;SDS011;55462;47.042;8.292;2024-03-02T05:30:15;2.28;;;2.17;;
45420;SDS011;55462;47.042;8.292;2024-03-02T05:32:40;2.42;;;2.30;;
45420;SDS011;55462;47.042;8.292;2024-03-02T05:35:05;2.28;;;2.17;;
45420;SDS011;55462;47.042;8.292;2024-03-02T05:37:31;1.98;;;1.88;;
45420;SDS011;55462;47.042;8.292;2024-03-02T05:39:57;3.10;;;1.45;;
45420;SDS011;55462;47.042;8.292;2024-03-02T05:42:22;3.43;;;1.90;;
45420;SDS011;55462;47.042;8.292;2024-03-02T05:44:47;1.58;;;1.48;;
45420;SDS011;55462;47.042;8.292;2024-03-02T05:47:13;1.63;;;1.52;;
45420;SDS011;55462;47.042;8.292;2024-03-02T05:49:38;1.70;;;1.60;;
45420;SDS011;55462;47.042;8.292;2024-03-02T05:52:04;1.20;;;1.20;;
45420;SDS011;55462;47.042;8.292;2024-03-02T05:54:29;2.47;;;2.38;;
45420;SDS011;55462;47.042;8.292;2024-03-02T05:56:54;2.10;;;1.67;;
45420;SDS011;55462;47.042;8.292;2024-03-02T05:59:20;1.25;;;1.25;;
45420;SDS011;55462;47.042;8.292;2024-03-02T06:01:46;1.02;;;1.02;;
45420;SDS011;55462;47.042;8.292;2024-03-02T06:04:12;2.08;;;1.30;;
45420;SDS011;55462;47.042;8.292;2024-03-02T06:06:37;1.23;;;1.23;;
45420;SDS011;55462;47.042;8.292;2024-03-02T06:09:03;1.90;;;1.30;;
45420;SDS011;55462;47.042;8.292;2024-03-02T06:11:32;1.30;;;1.30;;
45420;SDS011;55462;47.042;8.292;2024-03-02T06:13:58;1.38;;;1.38;;
45420;SDS011;55462;47.042;8.292;2024-03-02T06:16:23;1.50;;;1.40;;
45420;SDS011;55462;47.042;8.292;2024-03-02T06:18:48;1.30;;;1.30;;
45420;SDS011;55462;47.042;8.292;2024-03-02T06:21:14;0.93;;;0.93;;
45420;SDS011;55462;47.042;8.292;2024-03-02T06:23:39;1.00;;;1.00;;
45420;SDS011;55462;47.042;8.292;2024-03-02T06:26:04;1.03;;;1.03;;
45420;SDS011;55462;47.042;8.292;2024-03-02T06:28:30;1.10;;;1.10;;
45420;SDS011;55462;47.042;8.292;2024-03-02T06:30:55;1.60;;;1.50;;
45420;SDS011;55462;47.042;8.292;2024-03-02T06:33:21;1.40;;;1.40;;
45420;SDS011;55462;47.042;8.292;2024-03-02T06:35:46;1.93;;;1.83;;
45420;SDS011;55462;47.042;8.292;2024-03-02T06:38:11;1.70;;;1.60;;
45420;SDS011;55462;47.042;8.292;2024-03-02T06:40:36;1.77;;;1.73;;
45420;SDS011;55462;47.042;8.292;2024-03-02T06:43:03;1.70;;;1.60;;
45420;SDS011;55462;47.042;8.292;2024-03-02T06:45:28;1.77;;;1.40;;
45420;SDS011;55462;47.042;8.292;2024-03-02T06:47:55;3.03;;;2.05;;
45420;SDS011;55462;47.042;8.292;2024-03-02T06:50:21;2.53;;;2.00;;
45420;SDS011;55462;47.042;8.292;2024-03-02T06:52:46;2.00;;;1.90;;
45420;SDS011;55462;47.042;8.292;2024-03-02T06:55:12;2.22;;;2.13;;
45420;SDS011;55462;47.042;8.292;2024-03-02T06:57:37;3.20;;;3.00;;
45420;SDS011;55462;47.042;8.292;2024-03-02T07:00:02;3.95;;;3.67;;
45420;SDS011;55462;47.042;8.292;2024-03-02T07:02:30;3.80;;;3.50;;
45420;SDS011;55462;47.042;8.292;2024-03-02T07:04:55;3.45;;;3.15;;
45420;SDS011;55462;47.042;8.292;2024-03-02T07:07:21;3.25;;;2.95;;
45420;SDS011;55462;47.042;8.292;2024-03-02T07:09:46;3.13;;;2.83;;
45420;SDS011;55462;47.042;8.292;2024-03-02T07:12:12;3.17;;;2.35;;
45420;SDS011;55462;47.042;8.292;2024-03-02T07:14:38;2.97;;;2.78;;
45420;SDS011;55462;47.042;8.292;2024-03-02T07:17:22;4.40;;;4.10;;
45420;SDS011;55462;47.042;8.292;2024-03-02T07:19:47;4.30;;;4.00;;
45420;SDS011;55462;47.042;8.292;2024-03-02T07:22:12;4.40;;;4.10;;
45420;SDS011;55462;47.042;8.292;2024-03-02T07:24:41;4.13;;;3.83;;
45420;SDS011;55462;47.042;8.292;2024-03-02T07:27:07;3.70;;;3.40;;
45420;SDS011;55462;47.042;8.292;2024-03-02T07:29:33;3.63;;;3.30;;
45420;SDS011;55462;47.042;8.292;2024-03-02T07:31:58;4.03;;;3.72;;
45420;SDS011;55462;47.042;8.292;2024-03-02T07:34:24;3.70;;;3.40;;
45420;SDS011;55462;47.042;8.292;2024-03-02T07:36:49;3.40;;;3.20;;
45420;SDS011;55462;47.042;8.292;2024-03-02T07:39:14;3.47;;;3.10;;
45420;SDS011;55462;47.042;8.292;2024-03-02T07:41:40;2.97;;;2.78;;
45420;SDS011;55462;47.042;8.292;2024-03-02T07:44:05;2.33;;;2.22;;
45420;SDS011;55462;47.042;8.292;2024-03-02T07:46:31;2.42;;;2.22;;
45420;SDS011;55462;47.042;8.292;2024-03-02T07:48:56;2.40;;;2.30;;
45420;SDS011;55462;47.042;8.292;2024-03-02T07:51:21;2.20;;;2.10;;
45420;SDS011;55462;47.042;8.292;2024-03-02T07:53:46;2.58;;;2.47;;
45420;SDS011;55462;47.042;8.292;2024-03-02T07:56:12;2.17;;;2.08;;
45420;SDS011;55462;47.042;8.292;2024-03-02T07:58:37;2.50;;;2.28;;
45420;SDS011;55462;47.042;8.292;2024-03-02T08:01:02;2.30;;;2.20;;
45420;SDS011;55462;47.042;8.292;2024-03-02T08:03:28;2.60;;;2.40;;
45420;SDS011;55462;47.042;8.292;2024-03-02T08:05:54;2.35;;;2.25;;
45420;SDS011;55462;47.042;8.292;2024-03-02T08:08:19;2.47;;;2.38;;
45420;SDS011;55462;47.042;8.292;2024-03-02T08:10:44;3.15;;;2.85;;
45420;SDS011;55462;47.042;8.292;2024-03-02T08:13:10;3.10;;;2.90;;
45420;SDS011;55462;47.042;8.292;2024-03-02T08:15:35;3.40;;;3.13;;
45420;SDS011;55462;47.042;8.292;2024-03-02T08:18:00;3.03;;;2.83;;
45420;SDS011;55462;47.042;8.292;2024-03-02T08:20:26;3.72;;;3.47;;
45420;SDS011;55462;47.042;8.292;2024-03-02T08:22:51;3.17;;;2.97;;
45420;SDS011;55462;47.042;8.292;2024-03-02T08:25:16;3.80;;;2.83;;
45420;SDS011;55462;47.042;8.292;2024-03-02T08:27:42;2.67;;;2.58;;
45420;SDS011;55462;47.042;8.292;2024-03-02T08:30:07;3.28;;;3.08;;
45420;SDS011;55462;47.042;8.292;2024-03-02T08:32:35;3.50;;;3.30;;
45420;SDS011;55462;47.042;8.292;2024-03-02T08:35:00;3.53;;;3.20;;
45420;SDS011;55462;47.042;8.292;2024-03-02T08:37:26;2.92;;;2.72;;
45420;SDS011;55462;47.042;8.292;2024-03-02T08:39:51;2.53;;;2.33;;
45420;SDS011;55462;47.042;8.292;2024-03-02T08:42:16;2.60;;;2.50;;
45420;SDS011;55462;47.042;8.292;2024-03-02T08:44:42;2.17;;;1.98;;
45420;SDS011;55462;47.042;8.292;2024-03-02T08:47:08;2.92;;;2.72;;
45420;SDS011;55462;47.042;8.292;2024-03-02T08:49:33;2.97;;;2.78;;
45420;SDS011;55462;47.042;8.292;2024-03-02T08:51:58;3.05;;;2.75;;
45420;SDS011;55462;47.042;8.292;2024-03-02T08:54:23;2.67;;;2.47;;
45420;SDS011;55462;47.042;8.292;2024-03-02T08:56:49;2.97;;;2.80;;
45420;SDS011;55462;47.042;8.292;2024-03-02T08:59:15;2.92;;;2.70;;
45420;SDS011;55462;47.042;8.292;2024-03-02T09:01:40;3.60;;;2.55;;
45420;SDS011;55462;47.042;8.292;2024-03-02T09:04:06;2.70;;;2.50;;
45420;SDS011;55462;47.042;8.292;2024-03-02T09:06:33;1.75;;;1.65;;
45420;SDS011;55462;47.042;8.292;2024-03-02T09:08:59;1.92;;;1.83;;
45420;SDS011;55462;47.042;8.292;2024-03-02T09:11:24;1.70;;;1.60;;
45420;SDS011;55462;47.042;8.292;2024-03-02T09:13:50;1.70;;;1.60;;
45420;SDS011;55462;47.042;8.292;2024-03-02T09:16:15;2.22;;;2.03;;
45420;SDS011;55462;47.042;8.292;2024-03-02T09:18:40;1.92;;;1.83;;
45420;SDS011;55462;47.042;8.292;2024-03-02T09:21:06;2.30;;;2.20;;
45420;SDS011;55462;47.042;8.292;2024-03-02T09:23:32;5.72;;;5.18;;
45420;SDS011;55462;47.042;8.292;2024-03-02T09:25:58;6.30;;;5.80;;
45420;SDS011;55462;47.042;8.292;2024-03-02T09:28:23;4.13;;;3.83;;
45420;SDS011;55462;47.042;8.292;2024-03-02T09:30:48;7.70;;;7.10;;
45420;SDS011;55462;47.042;8.292;2024-03-02T09:33:14;7.97;;;7.28;;
45420;SDS011;55462;47.042;8.292;2024-03-02T09:35:39;7.70;;;7.10;;
45420;SDS011;55462;47.042;8.292;2024-03-02T09:38:04;6.25;;;5.75;;
45420;SDS011;55462;47.042;8.292;2024-03-02T09:40:30;5.60;;;5.13;;
45420;SDS011;55462;47.042;8.292;2024-03-02T09:42:55;4.55;;;4.25;;
45420;SDS011;55462;47.042;8.292;2024-03-02T09:45:22;5.93;;;5.47;;
45420;SDS011;55462;47.042;8.292;2024-03-02T09:47:48;3.67;;;3.40;;
45420;SDS011;55462;47.042;8.292;2024-03-02T09:50:14;5.13;;;4.80;;
45420;SDS011;55462;47.042;8.292;2024-03-02T09:52:40;4.30;;;4.00;;
45420;SDS011;55462;47.042;8.292;2024-03-02T09:55:05;4.25;;;3.85;;
45420;SDS011;55462;47.042;8.292;2024-03-02T09:57:30;3.67;;;3.42;;
45420;SDS011;55462;47.042;8.292;2024-03-02T09:59:56;3.90;;;3.60;;
45420;SDS011;55462;47.042;8.292;2024-03-02T10:02:21;3.22;;;3.03;;
45420;SDS011;55462;47.042;8.292;2024-03-02T10:04:48;2.90;;;2.70;;
45420;SDS011;55462;47.042;8.292;2024-03-02T10:07:17;3.00;;;2.80;;
45420;SDS011;55462;47.042;8.292;2024-03-02T10:09:44;4.90;;;4.40;;
45420;SDS011;55462;47.042;8.292;2024-03-02T10:12:10;5.68;;;5.15;;
45420;SDS011;55462;47.042;8.292;2024-03-02T10:14:37;5.35;;;4.82;;
45420;SDS011;55462;47.042;8.292;2024-03-02T10:17:03;5.53;;;5.03;;
45420;SDS011;55462;47.042;8.292;2024-03-02T10:19:30;6.30;;;5.70;;
45420;SDS011;55462;47.042;8.292;2024-03-02T10:22:00;4.97;;;4.57;;
45420;SDS011;55462;47.042;8.292;2024-03-02T10:24:26;5.43;;;5.03;;
45420;SDS011;55462;47.042;8.292;2024-03-02T10:26:51;5.53;;;5.07;;
45420;SDS011;55462;47.042;8.292;2024-03-02T10:29:17;6.10;;;5.55;;
45420;SDS011;55462;47.042;8.292;2024-03-02T10:31:44;5.88;;;5.40;;
45420;SDS011;55462;47.042;8.292;2024-03-02T10:34:11;5.90;;;5.45;;
45420;SDS011;55462;47.042;8.292;2024-03-02T10:36:37;8.75;;;7.95;;
45420;SDS011;55462;47.042;8.292;2024-03-02T10:39:06;9.18;;;8.27;;
45420;SDS011;55462;47.042;8.292;2024-03-02T10:41:33;9.30;;;8.50;;
45420;SDS011;55462;47.042;8.292;2024-03-02T10:43:59;9.45;;;8.52;;
45420;SDS011;55462;47.042;8.292;2024-03-02T10:46:28;8.38;;;7.57;;
45420;SDS011;55462;47.042;8.292;2024-03-02T10:48:54;7.60;;;6.90;;
45420;SDS011;55462;47.042;8.292;2024-03-02T10:51:27;6.40;;;5.80;;
45420;SDS011;55462;47.042;8.292;2024-03-02T10:53:55;6.30;;;5.70;;
45420;SDS011;55462;47.042;8.292;2024-03-02T11:01:49;4.97;;;4.47;;
45420;SDS011;55462;47.042;8.292;2024-03-02T11:04:15;5.22;;;4.72;;
45420;SDS011;55462;47.042;8.292;2024-03-02T11:06:43;4.57;;;4.20;;
45420;SDS011;55462;47.042;8.292;2024-03-02T11:09:14;3.72;;;3.40;;
45420;SDS011;55462;47.042;8.292;2024-03-02T11:11:40;4.63;;;3.30;;
45420;SDS011;55462;47.042;8.292;2024-03-02T11:14:10;4.10;;;3.80;;
45420;SDS011;55462;47.042;8.292;2024-03-02T11:16:39;5.97;;;4.63;;
45420;SDS011;55462;47.042;8.292;2024-03-02T11:19:06;5.57;;;5.18;;
45420;SDS011;55462;47.042;8.292;2024-03-02T11:21:34;5.78;;;5.28;;
45420;SDS011;55462;47.042;8.292;2024-03-02T11:23:59;6.10;;;5.60;;
45420;SDS011;55462;47.042;8.292;2024-03-02T11:26:27;6.38;;;5.85;;
45420;SDS011;55462;47.042;8.292;2024-03-02T11:28:53;6.97;;;6.38;;
45420;SDS011;55462;47.042;8.292;2024-03-02T11:31:20;7.53;;;6.63;;
45420;SDS011;55462;47.042;8.292;2024-03-02T11:33:46;7.30;;;6.57;;
45420;SDS011;55462;47.042;8.292;2024-03-02T11:36:11;6.97;;;6.40;;
45420;SDS011;55462;47.042;8.292;2024-03-02T11:38:36;7.97;;;7.30;;
45420;SDS011;55462;47.042;8.292;2024-03-02T11:41:06;8.95;;;8.05;;
45420;SDS011;55462;47.042;8.292;2024-03-02T11:43:37;8.45;;;7.68;;
45420;SDS011;55462;47.042;8.292;2024-03-02T11:46:04;8.98;;;8.07;;
45420;SDS011;55462;47.042;8.292;2024-03-02T11:48:32;8.48;;;7.68;;
45420;SDS011;55462;47.042;8.292;2024-03-02T11:50:58;7.22;;;6.60;;
45420;SDS011;55462;47.042;8.292;2024-03-02T11:53:24;7.15;;;6.45;;
45420;SDS011;55462;47.042;8.292;2024-03-02T11:55:52;6.88;;;6.28;;
45420;SDS011;55462;47.042;8.292;2024-03-02T11:58:20;5.80;;;5.30;;
45420;SDS011;55462;47.042;8.292;2024-03-02T12:00:57;5.88;;;5.38;;
45420;SDS011;55462;47.042;8.292;2024-03-02T12:03:23;5.15;;;4.75;;
45420;SDS011;55462;47.042;8.292;2024-03-02T12:05:50;5.20;;;4.80;;
45420;SDS011;55462;47.042;8.292;2024-03-02T12:08:17;5.60;;;5.10;;
45420;SDS011;55462;47.042;8.292;2024-03-02T12:10:42;5.35;;;4.93;;
45420;SDS011;55462;47.042;8.292;2024-03-02T12:13:09;5.07;;;4.60;;
45420;SDS011;55462;47.042;8.292;2024-03-02T12:15:36;6.13;;;5.63;;
45420;SDS011;55462;47.042;8.292;2024-03-02T12:18:02;5.30;;;4.90;;
45420;SDS011;55462;47.042;8.292;2024-03-02T12:20:28;5.75;;;5.30;;
45420;SDS011;55462;47.042;8.292;2024-03-02T12:22:55;6.18;;;5.57;;
45420;SDS011;55462;47.042;8.292;2024-03-02T12:25:24;8.80;;;6.07;;
45420;SDS011;55462;47.042;8.292;2024-03-02T12:27:51;6.75;;;6.18;;
45420;SDS011;55462;47.042;8.292;2024-03-02T12:30:18;6.07;;;5.47;;
45420;SDS011;55462;47.042;8.292;2024-03-02T12:32:46;6.63;;;6.03;;
45420;SDS011;55462;47.042;8.292;2024-03-02T12:35:12;6.68;;;6.05;;
45420;SDS011;55462;47.042;8.292;2024-03-02T12:37:47;7.40;;;6.70;;
45420;SDS011;55462;47.042;8.292;2024-03-02T12:40:14;6.53;;;6.00;;
45420;SDS011;55462;47.042;8.292;2024-03-02T12:42:43;5.72;;;5.30;;
45420;SDS011;55462;47.042;8.292;2024-03-02T12:45:08;5.80;;;5.30;;
45420;SDS011;55462;47.042;8.292;2024-03-02T12:47:34;6.45;;;5.95;;
45420;SDS011;55462;47.042;8.292;2024-03-02T12:50:00;6.47;;;5.88;;
45420;SDS011;55462;47.042;8.292;2024-03-02T12:52:26;6.18;;;5.68;;
45420;SDS011;55462;47.042;8.292;2024-03-02T12:54:51;5.13;;;4.72;;
45420;SDS011;55462;47.042;8.292;2024-03-02T12:57:20;6.00;;;5.50;;
45420;SDS011;55462;47.042;8.292;2024-03-02T12:59:46;5.88;;;5.07;;
45420;SDS011;55462;47.042;8.292;2024-03-02T13:02:21;7.20;;;6.60;;
45420;SDS011;55462;47.042;8.292;2024-03-02T13:04:52;6.03;;;5.53;;
45420;SDS011;55462;47.042;8.292;2024-03-02T13:07:21;6.53;;;6.00;;
45420;SDS011;55462;47.042;8.292;2024-03-02T13:09:49;6.30;;;5.80;;
45420;SDS011;55462;47.042;8.292;2024-03-02T13:12:15;6.13;;;5.63;;
45420;SDS011;55462;47.042;8.292;2024-03-02T13:14:41;6.43;;;5.88;;
45420;SDS011;55462;47.042;8.292;2024-03-02T13:17:07;6.57;;;5.88;;
45420;SDS011;55462;47.042;8.292;2024-03-02T13:19:33;5.85;;;5.35;;
45420;SDS011;55462;47.042;8.292;2024-03-02T13:21:59;6.00;;;5.50;;
45420;SDS011;55462;47.042;8.292;2024-03-02T13:24:26;5.60;;;5.13;;
45420;SDS011;55462;47.042;8.292;2024-03-02T13:26:54;5.68;;;5.20;;
45420;SDS011;55462;47.042;8.292;2024-03-02T13:29:21;5.43;;;5.03;;
45420;SDS011;55462;47.042;8.292;2024-03-02T13:31:47;6.07;;;5.57;;
45420;SDS011;55462;47.042;8.292;2024-03-02T13:34:12;5.68;;;5.20;;
45420;SDS011;55462;47.042;8.292;2024-03-02T13:36:37;5.75;;;5.25;;
45420;SDS011;55462;47.042;8.292;2024-03-02T13:39:03;5.68;;;5.10;;
45420;SDS011;55462;47.042;8.292;2024-03-02T13:41:30;6.13;;;5.63;;
45420;SDS011;55462;47.042;8.292;2024-03-02T13:43:56;5.22;;;4.82;;
45420;SDS011;55462;47.042;8.292;2024-03-02T13:46:22;5.07;;;4.70;;
45420;SDS011;55462;47.042;8.292;2024-03-02T13:48:47;5.50;;;5.10;;
45420;SDS011;55462;47.042;8.292;2024-03-02T13:51:12;5.18;;;4.78;;
45420;SDS011;55462;47.042;8.292;2024-03-02T13:53:37;5.38;;;4.97;;
45420;SDS011;55462;47.042;8.292;2024-03-02T13:56:03;5.85;;;5.18;;
45420;SDS011;55462;47.042;8.292;2024-03-02T13:58:28;8.95;;;5.35;;
45420;SDS011;55462;47.042;8.292;2024-03-02T14:00:54;5.25;;;4.85;;
45420;SDS011;55462;47.042;8.292;2024-03-02T14:03:21;5.75;;;4.85;;
45420;SDS011;55462;47.042;8.292;2024-03-02T14:05:46;5.25;;;4.85;;
45420;SDS011;55462;47.042;8.292;2024-03-02T14:08:12;5.57;;;5.07;;
45420;SDS011;55462;47.042;8.292;2024-03-02T14:10:38;5.90;;;5.40;;
45420;SDS011;55462;47.042;8.292;2024-03-02T14:13:03;5.90;;;5.35;;
45420;SDS011;55462;47.042;8.292;2024-03-02T14:15:28;5.50;;;5.10;;
45420;SDS011;55462;47.042;8.292;2024-03-02T14:17:55;5.65;;;5.03;;
45420;SDS011;55462;47.042;8.292;2024-03-02T14:20:20;5.40;;;5.00;;
45420;SDS011;55462;47.042;8.292;2024-03-02T14:22:47;6.18;;;5.68;;
45420;SDS011;55462;47.042;8.292;2024-03-02T14:25:13;6.43;;;5.90;;
45420;SDS011;55462;47.042;8.292;2024-03-02T14:27:38;5.70;;;5.30;;
45420;SDS011;55462;47.042;8.292;2024-03-02T14:30:04;5.85;;;5.40;;
45420;SDS011;55462;47.042;8.292;2024-03-02T14:32:30;6.32;;;5.82;;
45420;SDS011;55462;47.042;8.292;2024-03-02T14:34:55;6.70;;;5.70;;
45420;SDS011;55462;47.042;8.292;2024-03-02T14:37:21;7.03;;;6.43;;
45420;SDS011;55462;47.042;8.292;2024-03-02T14:39:46;5.75;;;5.35;;
45420;SDS011;55462;47.042;8.292;2024-03-02T14:42:12;5.95;;;5.45;;
45420;SDS011;55462;47.042;8.292;2024-03-02T14:44:37;6.25;;;5.75;;
45420;SDS011;55462;47.042;8.292;2024-03-02T14:47:02;6.45;;;5.82;;
45420;SDS011;55462;47.042;8.292;2024-03-02T14:49:31;6.28;;;5.68;;
45420;SDS011;55462;47.042;8.292;2024-03-02T14:51:58;7.18;;;6.47;;